createdAt,value
2024-04-11T00:03:25.309Z,70.17
2024-04-11T00:07:33.409Z,70.36
2024-04-11T00:11:41.108Z,70.68
2024-04-11T00:15:51.802Z,70.67
2024-04-11T00:19:59.236Z,70.86
2024-04-11T00:24:10.013Z,70.76
2024-04-11T00:28:17.349Z,70.87
2024-04-11T00:32:26.284Z,71.06
2024-04-11T00:36:34.236Z,70.95
2024-04-11T00:40:41.903Z,71.12
2024-04-11T00:44:49.408Z,71.37
2024-04-11T00:48:57.715Z,71.49
2024-04-11T00:53:06.102Z,71.60
2024-04-11T00:57:16.837Z,71.58
2024-04-11T01:01:26.731Z,71.73
2024-04-11T01:05:35.922Z,71.62
2024-04-11T01:09:46.530Z,71.58
2024-04-11T01:13:54.607Z,71.49
2024-04-11T01:18:03.841Z,71.75
2024-04-11T01:22:12.504Z,72.17
2024-04-11T01:26:20.136Z,72.37
2024-04-11T01:30:29.388Z,72.57
2024-04-11T01:34:36.901Z,72.37
2024-04-11T01:38:46.626Z,72.51
2024-04-11T01:42:55.392Z,72.77
2024-04-11T01:47:02.980Z,72.91
2024-04-11T01:51:11.486Z,73.18
2024-04-11T01:55:19.072Z,73.12
2024-04-11T01:59:27.430Z,73.08
2024-04-11T02:03:35.557Z,73.05
2024-04-11T02:07:44.021Z,73.05
2024-04-11T02:11:55.118Z,73.14
2024-04-11T02:16:06.622Z,73.49
2024-04-11T02:20:14.496Z,73.44
2024-04-11T02:24:23.667Z,73.38
2024-04-11T02:28:31.131Z,73.29
2024-04-11T02:32:42.868Z,73.49
2024-04-11T02:36:50.405Z,73.45
2024-04-11T02:40:59.284Z,73.49
2024-04-11T02:45:16.233Z,73.52
2024-04-11T02:49:24.500Z,73.52
2024-04-11T02:53:33.688Z,73.50
2024-04-11T02:57:40.919Z,73.75
2024-04-11T03:01:52.420Z,73.85
2024-04-11T03:06:08.669Z,73.99
2024-04-11T03:10:16.803Z,74.66
2024-04-11T03:14:24.652Z,74.39
2024-04-11T03:18:36.093Z,74.42
2024-04-11T03:22:47.963Z,74.38
2024-04-11T03:26:55.662Z,74.50
2024-04-11T03:31:06.128Z,74.59
2024-04-11T03:35:13.440Z,74.47
2024-04-11T03:39:21.449Z,74.45
2024-04-11T03:43:29.560Z,74.42
2024-04-11T03:47:40.274Z,74.50
2024-04-11T03:51:51.350Z,74.22
2024-04-11T03:55:59.478Z,74.40
2024-04-11T04:00:08.969Z,74.74
2024-04-11T04:04:19.152Z,74.75
2024-04-11T04:08:26.536Z,75.05
2024-04-11T04:12:34.545Z,75.00
2024-04-11T04:16:43.293Z,75.23
2024-04-11T04:20:59.411Z,75.22
2024-04-11T04:25:12.951Z,74.95
2024-04-11T04:29:20.613Z,75.29
2024-04-11T04:33:28.936Z,75.28
2024-04-11T04:37:36.794Z,75.42
2024-04-11T04:41:44.933Z,75.91
2024-04-11T04:45:53.827Z,75.99
2024-04-11T04:50:01.727Z,76.22
2024-04-11T04:54:13.289Z,76.41
2024-04-11T04:58:21.999Z,76.21
2024-04-11T05:02:30.190Z,76.72
2024-04-11T05:06:38.898Z,76.69
2024-04-11T05:10:55.575Z,76.81
2024-04-11T05:15:13.607Z,77.20
2024-04-11T05:19:22.018Z,77.35
2024-04-11T05:23:34.196Z,77.63
2024-04-11T05:27:42.648Z,77.70
2024-04-11T05:31:50.416Z,77.70
2024-04-11T05:35:59.958Z,77.87
2024-04-11T05:40:09.106Z,78.03
2024-04-11T05:44:17.198Z,78.07
2024-04-11T05:48:25.343Z,77.96
2024-04-11T05:52:32.996Z,78.05
2024-04-11T05:56:40.313Z,77.43
2024-04-11T06:00:50.928Z,77.20
2024-04-11T06:04:58.016Z,76.98
2024-04-11T06:09:09.594Z,77.03
2024-04-11T06:13:20.514Z,76.70
2024-04-11T06:17:28.837Z,75.70
2024-04-11T06:21:46.447Z,74.81
2024-04-11T06:25:53.904Z,74.58
2024-04-11T06:30:04.208Z,73.75
2024-04-11T06:34:12.934Z,72.60
2024-04-11T06:38:22.259Z,72.60
2024-04-11T06:42:30.914Z,72.52
2024-04-11T06:46:41.372Z,72.05
2024-04-11T06:50:49.354Z,71.62
2024-04-11T06:54:57.388Z,70.80
2024-04-11T06:59:07.059Z,69.88
2024-04-11T07:03:18.224Z,69.67
2024-04-11T07:07:28.405Z,69.32
2024-04-11T07:11:41.425Z,68.31
2024-04-11T07:15:51.285Z,67.39
2024-04-11T07:19:59.672Z,67.46
2024-04-11T07:24:09.258Z,66.88
2024-04-11T07:28:17.327Z,66.81
2024-04-11T07:32:25.705Z,66.63
2024-04-11T07:36:34.293Z,66.03
2024-04-11T07:40:55.749Z,65.08
2024-04-11T07:45:07.479Z,64.87
2024-04-11T07:49:15.586Z,64.35
2024-04-11T07:53:27.578Z,64.05
2024-04-11T07:57:34.952Z,62.44
2024-04-11T08:01:42.904Z,62.19
2024-04-11T08:05:50.871Z,61.63
2024-04-11T08:09:59.936Z,61.22
2024-04-11T08:14:08.295Z,59.94
2024-04-11T08:18:16.730Z,59.78
2024-04-11T08:22:26.142Z,59.88
2024-04-11T08:26:34.821Z,59.20
2024-04-11T08:30:42.432Z,58.72
2024-04-11T08:34:50.550Z,58.72
2024-04-11T08:38:59.832Z,58.42
2024-04-11T08:43:11.745Z,58.11
2024-04-11T08:47:19.392Z,57.31
2024-04-11T08:51:27.090Z,56.36
2024-04-11T08:55:36.673Z,55.07
2024-04-11T08:59:47.438Z,55.30
2024-04-11T09:03:55.312Z,54.70
2024-04-11T09:08:02.707Z,54.73
2024-04-11T09:12:16.225Z,54.58
2024-04-11T09:16:29.050Z,54.73
2024-04-11T09:20:37.300Z,54.38
2024-04-11T09:24:46.621Z,53.64
2024-04-11T09:28:55.245Z,53.43
2024-04-11T09:33:08.500Z,53.60
2024-04-11T09:37:18.637Z,52.18
2024-04-11T09:41:27.707Z,52.27
2024-04-11T09:45:38.285Z,52.72
2024-04-11T09:49:55.465Z,51.50
2024-04-11T09:54:05.763Z,50.12
2024-04-11T09:58:15.104Z,49.89
2024-04-11T10:02:26.426Z,49.40
2024-04-11T10:06:36.940Z,49.05
2024-04-11T10:10:44.329Z,49.58
2024-04-11T10:15:00.873Z,49.11
2024-04-11T10:19:14.261Z,49.74
2024-04-11T10:23:31.361Z,50.40
2024-04-11T10:27:39.477Z,49.54
2024-04-11T10:31:49.040Z,49.00
2024-04-11T10:35:58.326Z,48.37
2024-04-11T10:40:11.702Z,47.97
2024-04-11T10:44:19.172Z,48.07
2024-04-11T10:48:27.136Z,47.13
2024-04-11T10:52:35.241Z,45.71
2024-04-11T10:56:45.298Z,46.12
2024-04-11T11:01:13.476Z,46.39
2024-04-11T11:05:21.361Z,46.97
2024-04-11T11:09:30.604Z,47.05
2024-04-11T11:13:38.032Z,46.37
2024-04-11T11:17:46.745Z,45.65
2024-04-11T11:22:00.820Z,45.40
2024-04-11T11:26:12.978Z,45.08
2024-04-11T11:30:20.185Z,45.30
2024-04-11T11:34:31.587Z,45.04
2024-04-11T11:38:39.673Z,44.21
2024-04-11T11:42:47.843Z,44.08
2024-04-11T11:47:07.356Z,44.45
2024-04-11T11:51:14.672Z,44.14
2024-04-11T11:55:28.074Z,43.46
2024-04-11T11:59:36.226Z,43.78
2024-04-11T12:03:45.720Z,43.56
2024-04-11T12:07:55.627Z,42.74
2024-04-11T12:12:23.142Z,42.19
2024-04-11T12:16:40.887Z,42.72
2024-04-11T12:20:48.980Z,42.72
2024-04-11T12:24:59.640Z,42.64
2024-04-11T12:29:07.215Z,42.82
2024-04-11T12:33:17.888Z,42.48
2024-04-11T12:37:26.805Z,41.63
2024-04-11T12:41:34.239Z,40.79
2024-04-11T12:45:41.421Z,40.39
2024-04-11T12:49:49.874Z,40.50
2024-04-11T12:53:57.160Z,41.26
2024-04-11T12:58:08.134Z,40.71
2024-04-11T13:02:20.648Z,39.58
2024-04-11T13:06:38.502Z,38.86
2024-04-11T13:10:50.305Z,38.45
2024-04-11T13:15:10.117Z,38.41
2024-04-11T13:19:20.598Z,39.22
2024-04-11T13:23:30.693Z,38.95
2024-04-11T13:27:40.327Z,38.50
2024-04-11T13:31:50.716Z,38.00
2024-04-11T13:36:05.502Z,37.49
2024-04-11T13:40:45.906Z,37.67
2024-04-11T13:44:55.250Z,37.76
2024-04-11T13:49:21.651Z,37.13
2024-04-11T13:53:33.748Z,37.13
2024-04-11T13:57:42.483Z,37.09
2024-04-11T14:01:52.665Z,37.46
2024-04-11T14:06:23.945Z,36.78
2024-04-11T14:10:34.392Z,37.23
2024-04-11T14:14:41.599Z,37.26
2024-04-11T14:18:50.107Z,37.44
2024-04-11T14:23:16.784Z,37.83
2024-04-11T14:27:30.651Z,37.64
2024-04-11T14:31:40.485Z,36.49
2024-04-11T14:36:07.789Z,36.85
2024-04-11T14:40:15.702Z,36.82
2024-04-11T14:44:23.358Z,37.43
2024-04-11T14:48:38.068Z,37.63
2024-04-11T14:52:46.349Z,37.54
2024-04-11T14:56:56.659Z,36.91
2024-04-11T15:01:16.263Z,37.20
2024-04-11T15:05:23.654Z,37.06
2024-04-11T15:09:35.884Z,36.95
2024-04-11T15:13:45.691Z,37.53
2024-04-11T15:17:59.651Z,36.91
2024-04-11T15:22:07.797Z,36.50
2024-04-11T15:26:18.137Z,36.65
2024-04-11T15:30:47.153Z,36.33
2024-04-11T15:34:55.213Z,36.38
2024-04-11T15:39:02.579Z,36.57
2024-04-11T15:43:23.279Z,36.33
2024-04-11T15:47:34.996Z,36.53
2024-04-11T15:51:48.593Z,36.46
2024-04-11T15:55:56.211Z,36.34
2024-04-11T16:00:12.477Z,36.57
2024-04-11T16:04:24.956Z,36.72
2024-04-11T16:08:36.519Z,36.86
2024-04-11T16:12:44.622Z,37.66
2024-04-11T16:16:56.746Z,37.56
2024-04-11T16:21:04.645Z,37.35
2024-04-11T16:25:20.965Z,37.25
2024-04-11T16:29:31.520Z,37.55
2024-04-11T16:33:43.153Z,37.80
2024-04-11T16:38:09.131Z,38.40
2024-04-11T16:42:24.156Z,38.32
2024-04-11T16:46:38.648Z,38.55
2024-04-11T16:50:50.218Z,38.92
2024-04-11T16:55:03.183Z,39.22
2024-04-11T16:59:10.749Z,39.58
2024-04-11T17:03:21.722Z,40.00
2024-04-11T17:07:37.966Z,40.34
2024-04-11T17:11:46.986Z,40.79
2024-04-11T17:16:16.878Z,41.03
2024-04-11T17:20:44.056Z,41.60
2024-04-11T17:24:53.582Z,41.88
2024-04-11T17:29:05.203Z,42.35
2024-04-11T17:33:21.326Z,43.10
2024-04-11T17:37:41.046Z,43.34
2024-04-11T17:41:59.855Z,43.48
2024-04-11T17:46:08.565Z,43.88
2024-04-11T17:50:15.610Z,43.91
2024-04-11T17:54:23.628Z,44.33
2024-04-11T17:58:32.594Z,44.83
2024-04-11T18:02:47.811Z,46.04
2024-04-11T18:06:55.991Z,47.32
2024-04-11T18:11:08.678Z,48.23
2024-04-11T18:15:19.119Z,48.54
2024-04-11T18:19:30.262Z,48.72
2024-04-11T18:23:38.156Z,49.29
2024-04-11T18:27:47.476Z,49.81
2024-04-11T18:31:54.734Z,50.54
2024-04-11T18:36:15.850Z,51.01
2024-04-11T18:40:38.024Z,51.32
2024-04-11T18:44:51.943Z,51.69
2024-04-11T18:49:18.765Z,52.00
2024-04-11T18:53:26.898Z,52.44
2024-04-11T18:57:36.410Z,52.89
2024-04-11T19:01:47.757Z,52.83
2024-04-11T19:05:59.326Z,53.19
2024-04-11T19:10:15.630Z,52.99
2024-04-11T19:14:26.197Z,53.21
2024-04-11T19:18:35.876Z,53.96
2024-04-11T19:22:47.242Z,54.61
2024-04-11T19:26:55.090Z,55.46
2024-04-11T19:31:03.744Z,55.72
2024-04-11T19:35:12.026Z,56.07
2024-04-11T19:39:20.872Z,56.52
2024-04-11T19:43:32.305Z,57.03
2024-04-11T19:47:44.704Z,57.79
2024-04-11T19:51:58.579Z,58.04
2024-04-11T19:56:19.355Z,58.63
2024-04-11T20:00:45.534Z,58.73
2024-04-11T20:05:01.221Z,59.04
2024-04-11T20:09:14.415Z,58.95
2024-04-11T20:13:35.855Z,59.21
2024-04-11T20:17:48.273Z,59.66
2024-04-11T20:21:56.062Z,59.83
2024-04-11T20:26:11.973Z,59.74
2024-04-11T20:30:21.572Z,60.00
2024-04-11T20:34:30.401Z,60.31
2024-04-11T20:38:38.111Z,60.43
2024-04-11T20:43:02.994Z,60.76
2024-04-11T20:47:28.355Z,60.95
2024-04-11T20:51:53.953Z,61.00
2024-04-11T20:56:19.490Z,61.26
2024-04-11T21:00:46.268Z,61.55
2024-04-11T21:05:11.115Z,61.73
2024-04-11T21:09:36.358Z,62.02
2024-04-11T21:14:01.197Z,61.92
2024-04-11T21:18:27.424Z,62.09
2024-04-11T21:22:53.820Z,62.42
2024-04-11T21:27:19.145Z,62.51
2024-04-11T21:31:44.774Z,62.78
2024-04-11T21:35:55.222Z,63.10
2024-04-11T21:40:14.643Z,63.43
2024-04-11T21:44:27.760Z,63.72
2024-04-11T21:48:41.790Z,64.13
2024-04-11T21:52:54.321Z,64.37
2024-04-11T21:57:06.008Z,64.70
2024-04-11T22:01:18.469Z,64.60
2024-04-11T22:05:28.700Z,64.82
2024-04-11T22:09:41.561Z,64.37
2024-04-11T22:13:54.000Z,64.34
2024-04-11T22:18:20.724Z,64.60
2024-04-11T22:22:30.477Z,64.65
2024-04-11T22:26:44.104Z,64.39
2024-04-11T22:31:07.183Z,64.79
2024-04-11T22:35:18.808Z,64.75
2024-04-11T22:39:37.074Z,64.83
2024-04-11T22:43:46.235Z,64.94
2024-04-11T22:47:54.697Z,65.14
2024-04-11T22:52:03.549Z,65.27
2024-04-11T22:56:22.162Z,65.43
2024-04-11T23:00:35.391Z,65.34
2024-04-11T23:04:47.522Z,65.36
2024-04-11T23:09:08.277Z,65.09
2024-04-11T23:13:20.223Z,65.62
2024-04-11T23:17:38.136Z,65.91
2024-04-11T23:21:59.860Z,65.89
2024-04-11T23:26:14.528Z,65.69
2024-04-11T23:30:29.466Z,65.76
2024-04-11T23:34:39.522Z,65.79
2024-04-11T23:38:49.149Z,65.96
2024-04-11T23:42:57.172Z,65.73
2024-04-11T23:47:05.252Z,65.78
2024-04-11T23:51:21.802Z,65.77
2024-04-11T23:55:31.602Z,65.74
2024-04-11T23:59:41.139Z,66.05
